BBC Delaware — V2CN9 — position and weather

sailwx.info

Track history (hours):
 
Tides and Currents Weather Stations Pressure Air Temp Water Temp Dewpoint Dewpoint Depression Visibility Wind Speed Wind Dir Waves Ship Positions

BBC Delaware

Last reported at 2017-Oct-08 22:45 UTC. Time now 2017-Nov-21 01:08 UTC.
Position N 37°52' E 122°33'.
Warning: this ship's position is 43 days out of date.

Length 138 m; draft 6.3 m.

Type: Ship. MMSI: 305057000.

Date/timePositionNaut miles runAvg speedWind from/ knotsBaromVisibWave heightAir tempDewpointWater temp
2017-Oct-08 22:45N 37°52' E 122°33'415.0
2017-Oct-08 22:29N 37°48' E 122°36'2714.3
2017-Oct-08 20:35N 37°24' E 122°52'613.8
2017-Oct-08 20:11N 37°18' E 122°52'413.0
2017-Oct-08 19:51N 37°14' E 122°52'612.8
2017-Oct-08 19:23N 37°08' E 122°52'1012.6
2017-Oct-08 18:34N 36°58' E 122°52'112.5
2017-Oct-08 18:30N 36°57' E 122°52'612.6
2017-Oct-08 18:00N 36°51' E 122°52'33613.4
2017-Oct-07 16:58N 31°15' E 122°33'19 9.2
2017-Oct-07 14:53N 31°02' E 122°17'410.9
2017-Oct-07 14:30N 31°03' E 122°12'4 8.5
2017-Oct-07 14:00N 31°03' E 122°07'5 9.8
2017-Oct-07 13:31N 31°05' E 122°02'4 8.7
2017-Oct-07 13:00N 31°06' E 121°57'510.5
2017-Oct-07 12:30N 31°09' E 121°52'510.3
2017-Oct-07 12:00N 31°13' E 121°48'611.8
2017-Oct-07 11:30N 31°18' E 121°44'510.1
2017-Oct-07 11:00N 31°21' E 121°39'611.5
2017-Oct-07 10:30N 31°24' E 121°33'3 6.2
2017-Oct-07 10:00N 31°22' E 121°30'4 7.3
2017-Oct-07 09:31N 31°20' E 121°33'4 7.2
2017-Oct-07 09:00N 31°16' E 121°34'4 7.1
2017-Oct-07 08:30N 31°15' E 121°30'3 5.9
2017-Oct-07 08:01N 31°12' E 121°30'3 5.6
2017-Oct-07 07:29N 31°09' E 121°28'3 5.4
2017-Oct-07 06:59N 31°07' E 121°28'1 2.0
2017-Oct-07 06:29N 31°06' E 121°28'0 0.0
2017-Oct-07 06:00N 31°06' E 121°28'0 0.0
2017-Oct-07 05:18N 31°06' E 121°28'0 0.0
2017-Oct-07 05:00N 31°06' E 121°28'0 0.0
2017-Oct-07 04:26N 31°06' E 121°28'0 0.0
2017-Oct-07 03:41N 31°06' E 121°28'0 0.0
2017-Oct-07 03:30N 31°06' E 121°28'0 0.0
2017-Oct-07 02:31N 31°06' E 121°28'0 0.0
2017-Oct-07 02:30N 31°06' E 121°28'0 0.0
2017-Oct-07 02:01N 31°06' E 121°28'0 0.0
2017-Oct-07 01:25N 31°06' E 121°28'0 0.0
2017-Oct-07 00:58N 31°06' E 121°28'0 0.0
2017-Oct-07 00:25N 31°06' E 121°28'0 0.0
2017-Oct-06 23:55N 31°06' E 121°28'0 0.0
2017-Oct-06 23:30N 31°06' E 121°28'0 0.0
2017-Oct-06 23:00N 31°06' E 121°28'0 0.0
2017-Oct-06 22:29N 31°06' E 121°28'0 0.0
2017-Oct-06 21:56N 31°06' E 121°28'0 0.0
2017-Oct-06 21:29N 31°06' E 121°28'0 0.0
2017-Oct-06 20:57N 31°06' E 121°28'0 0.0
2017-Oct-06 20:23N 31°06' E 121°28'0 0.0
2017-Oct-06 20:00N 31°06' E 121°28'0 0.0
2017-Oct-06 19:20N 31°06' E 121°28'0 0.0
2017-Oct-06 19:00N 31°06' E 121°28'0 0.0
2017-Oct-06 18:28N 31°06' E 121°28'0 0.0
2017-Oct-06 17:58N 31°06' E 121°28'0 0.0
2017-Oct-06 17:16N 31°06' E 121°28'0 0.0
2017-Oct-06 16:49N 31°06' E 121°28'0 0.0
2017-Oct-06 16:13N 31°06' E 121°28'0 0.0
2017-Oct-06 15:41N 31°06' E 121°28'0 0.0
2017-Oct-06 15:31N 31°06' E 121°28'0 0.0
2017-Oct-06 14:57N 31°06' E 121°28'0 0.0
2017-Oct-06 14:28N 31°06' E 121°28'0 0.0
2017-Oct-06 13:56N 31°06' E 121°28'0 0.0
2017-Oct-06 13:28N 31°06' E 121°28'0 0.0
2017-Oct-06 12:47N 31°06' E 121°28'0 0.0
2017-Oct-06 11:47N 31°06' E 121°28'0 0.0
2017-Oct-06 11:30N 31°06' E 121°28'0 0.0
2017-Oct-06 10:57N 31°06' E 121°28'0 0.0
2017-Oct-06 10:26N 31°06' E 121°28'0 0.0
2017-Oct-06 09:57N 31°06' E 121°28'0 0.0
2017-Oct-06 09:27N 31°06' E 121°28'0 0.0
2017-Oct-06 08:59N 31°06' E 121°28'0 0.0
2017-Oct-06 08:30N 31°06' E 121°28'0 0.0
2017-Oct-06 07:59N 31°06' E 121°28'0 0.0
2017-Oct-06 07:23N 31°06' E 121°28'0 0.0
2017-Oct-06 07:00N 31°06' E 121°28'0 0.0
2017-Oct-06 06:30N 31°06' E 121°28'0 0.0
2017-Oct-06 05:59N 31°06' E 121°28'0 0.0
2017-Oct-06 05:10N 31°06' E 121°28'0 0.0
2017-Oct-06 04:55N 31°06' E 121°28'0 0.0
2017-Oct-06 04:30N 31°06' E 121°28'0 0.0
2017-Oct-06 03:59N 31°06' E 121°28'0 0.0
2017-Oct-06 03:30N 31°06' E 121°28'0 0.0
2017-Oct-06 02:59N 31°06' E 121°28'0 0.0
2017-Oct-06 02:24N 31°06' E 121°28'0 0.0
2017-Oct-06 01:59N 31°06' E 121°28'0 0.0
2017-Oct-06 01:15N 31°06' E 121°28'0 0.0
2017-Oct-06 01:00N 31°06' E 121°28'0 0.0
2017-Oct-06 00:19N 31°06' E 121°28'0 0.0
2017-Oct-05 23:59N 31°06' E 121°28'0 0.0
2017-Oct-05 23:27N 31°06' E 121°28'0 0.0
2017-Oct-05 22:56N 31°06' E 121°28'0 0.0
2017-Oct-05 22:26N 31°06' E 121°28'0 0.0
2017-Oct-05 21:58N 31°06' E 121°28'0 0.0
2017-Oct-05 21:30N 31°06' E 121°28'0 0.0
2017-Oct-05 21:00N 31°06' E 121°28'0 0.0
2017-Oct-05 20:30N 31°06' E 121°28'0 0.0
2017-Oct-05 20:00N 31°06' E 121°28'0 0.0
2017-Oct-05 19:30N 31°06' E 121°28'0 0.0
2017-Oct-05 18:59N 31°06' E 121°28'0 0.0
2017-Oct-05 18:27N 31°06' E 121°28'0 0.0
2017-Oct-05 18:00N 31°06' E 121°28'0 0.0
2017-Oct-05 17:28N 31°06' E 121°28'0 0.0
2017-Oct-05 16:59N 31°06' E 121°28'0 0.0
2017-Oct-05 15:29N 31°06' E 121°28'0 0.0
2017-Oct-05 14:57N 31°06' E 121°28'0 0.0
2017-Oct-05 14:30N 31°06' E 121°28'0 0.0
2017-Oct-05 13:59N 31°06' E 121°28'0 0.0
2017-Oct-05 13:30N 31°06' E 121°28'0 0.0
2017-Oct-05 12:50N 31°06' E 121°28'0 0.0
2017-Oct-05 12:31N 31°06' E 121°28'0 0.0
2017-Oct-05 11:57N 31°06' E 121°28'0 0.0
2017-Oct-05 11:28N 31°06' E 121°28'0 0.0
2017-Oct-05 10:57N 31°06' E 121°28'0 0.0
2017-Oct-05 10:22N 31°06' E 121°28'0 0.0
2017-Oct-05 10:00N 31°06' E 121°28'0 0.0
2017-Oct-05 09:30N 31°06' E 121°28'0 0.0
2017-Oct-05 08:57N 31°06' E 121°28'0 0.0
2017-Oct-05 08:15N 31°06' E 121°28'0 0.0
2017-Oct-05 07:46N 31°06' E 121°28'0 0.0
2017-Oct-05 07:29N 31°06' E 121°28'0 0.0
2017-Oct-05 06:59N 31°06' E 121°28'0 0.0
2017-Oct-05 06:25N 31°06' E 121°28'0 0.0
2017-Oct-05 05:56N 31°06' E 121°28'0 0.0
2017-Oct-05 05:09N 31°06' E 121°28'0 0.1
2017-Oct-05 04:55N 31°06' E 121°28'0 0.0
2017-Oct-05 04:30N 31°06' E 121°28'0 0.0
2017-Oct-05 04:00N 31°06' E 121°28'0 0.0
2017-Oct-05 01:16N 31°06' E 121°28'0 0.0
2017-Oct-05 00:53N 31°06' E 121°28'0 0.0
2017-Oct-05 00:27N 31°06' E 121°28'0 0.0
2017-Oct-04 23:57N 31°06' E 121°28'0 0.0
2017-Oct-04 23:30N 31°06' E 121°28'0 0.0
2017-Oct-04 22:52N 31°06' E 121°28'0 0.0
2017-Oct-04 22:25N 31°06' E 121°28'0 0.0
2017-Oct-04 22:00N 31°06' E 121°28'0 0.0
2017-Oct-04 21:29N 31°06' E 121°28'0 0.0
2017-Oct-04 20:58N 31°06' E 121°28'0 0.0
2017-Oct-04 20:24N 31°06' E 121°28'0 0.0
2017-Oct-04 19:53N 31°06' E 121°28'0 0.0
2017-Oct-04 19:30N 31°06' E 121°28'0 0.0
2017-Oct-04 18:52N 31°06' E 121°28'0 0.0
2017-Oct-04 18:27N 31°06' E 121°28'0 0.0
2017-Oct-04 17:56N 31°06' E 121°28'0 0.0
2017-Oct-04 17:23N 31°06' E 121°28'0 0.0
2017-Oct-04 16:50N 31°06' E 121°28'0 0.0
2017-Oct-04 16:31N 31°06' E 121°28'0 0.0
2017-Oct-04 16:01N 31°06' E 121°28'0 0.0
2017-Oct-04 15:28N 31°06' E 121°28'0 0.0
2017-Oct-04 14:58N 31°06' E 121°28'0 0.0
2017-Oct-04 14:25N 31°06' E 121°28'0 0.0
2017-Oct-04 13:58N 31°06' E 121°28'0 0.0
2017-Oct-04 13:28N 31°06' E 121°28'0 0.0
2017-Oct-04 12:58N 31°06' E 121°28'0 0.0
2017-Oct-04 12:21N 31°06' E 121°28'0 0.0
2017-Oct-04 11:58N 31°06' E 121°28'0 0.0
2017-Oct-04 11:17N 31°06' E 121°28'0 0.0
2017-Oct-04 10:52N 31°06' E 121°28'0 0.0
2017-Oct-04 10:28N 31°06' E 121°28'0 0.0
2017-Oct-04 09:52N 31°06' E 121°28'0 0.0
2017-Oct-04 09:30N 31°06' E 121°28'0 0.0
2017-Oct-04 08:54N 31°06' E 121°28'0 0.0
2017-Oct-04 08:30N 31°06' E 121°28'0 0.0
2017-Oct-04 07:53N 31°06' E 121°28'0 0.9
2017-Oct-04 07:30N 31°06' E 121°27'0 0.8
2017-Oct-04 06:58N 31°06' E 121°27'1 1.0
2017-Oct-04 06:23N 31°07' E 121°28'0 0.0
2017-Oct-04 06:00N 31°07' E 121°28'0 0.0
2017-Oct-04 05:27N 31°07' E 121°28'0 0.0
2017-Oct-04 04:57N 31°07' E 121°28'0 0.0
2017-Oct-04 04:30N 31°07' E 121°28'0 0.0
2017-Oct-04 03:45N 31°07' E 121°28'0 0.0
2017-Oct-04 03:30N 31°07' E 121°28'0 0.0
2017-Oct-04 02:51N 31°07' E 121°28'0 0.0
2017-Oct-04 00:09N 31°07' E 121°28'0 0.0
2017-Oct-03 23:51N 31°07' E 121°28'0 0.0
2017-Oct-03 23:15N 31°07' E 121°28'0 0.0
2017-Oct-03 22:51N 31°07' E 121°28'0 0.0
2017-Oct-03 22:21N 31°07' E 121°28'0 0.0
2017-Oct-03 19:33N 31°07' E 121°28'0 0.0
2017-Oct-03 19:15N 31°07' E 121°28'0 0.0
2017-Oct-03 18:57N 31°07' E 121°28'0 0.0
2017-Oct-03 18:21N 31°07' E 121°28'0 0.0
2017-Oct-03 17:57N 31°07' E 121°28'0 0.0
2017-Oct-03 17:30N 31°07' E 121°28'0 0.0
2017-Oct-03 16:42N 31°07' E 121°28'0 0.0
2017-Oct-03 16:30N 31°07' E 121°28'0 0.0
2017-Oct-03 15:54N 31°07' E 121°28'0 0.0
2017-Oct-03 15:21N 31°07' E 121°28'0 0.0
2017-Oct-03 14:51N 31°07' E 121°28'0 0.0
2017-Oct-03 12:15N 31°07' E 121°28'0 0.0
2017-Oct-03 11:57N 31°07' E 121°28'0 0.0
2017-Oct-03 11:27N 31°07' E 121°28'0 0.0
2017-Oct-03 09:27N 31°07' E 121°28'0 0.0
2017-Oct-03 05:21N 31°07' E 121°28'0 0.0
2017-Oct-03 04:57N 31°07' E 121°28'0 0.0
2017-Oct-03 04:27N 31°07' E 121°28'0 0.0
2017-Oct-03 04:00N 31°07' E 121°28'0 0.0
2017-Oct-03 03:27N 31°07' E 121°28'0 0.0
2017-Oct-03 01:48N 31°07' E 121°28'0 0.0
2017-Oct-03 01:09N 31°07' E 121°28'0 0.0
2017-Oct-03 00:54N 31°07' E 121°28'0 0.0
2017-Oct-02 22:57N 31°07' E 121°28'0 0.0
2017-Oct-02 22:24N 31°07' E 121°28'0 0.0
2017-Oct-02 18:09N 31°07' E 121°28'0 0.0
2017-Oct-02 16:57N 31°07' E 121°28'0 0.0
2017-Oct-02 16:27N 31°07' E 121°28'0 0.0
2017-Oct-02 15:54N 31°07' E 121°28'0 0.0
2017-Oct-02 15:27N 31°07' E 121°28'0 0.0
2017-Oct-02 14:57N 31°07' E 121°28'0 0.0
2017-Oct-02 14:27N 31°07' E 121°28'0 0.0
2017-Oct-02 12:39N 31°07' E 121°28'0 0.0
2017-Oct-02 11:27N 31°07' E 121°28'0 0.0
2017-Oct-02 10:51N 31°07' E 121°28'0 0.0
2017-Oct-02 10:21N 31°07' E 121°28'0 0.0
2017-Oct-02 09:48N 31°07' E 121°28'0 0.0
2017-Oct-02 09:27N 31°07' E 121°28'0 0.0
2017-Oct-02 08:45N 31°07' E 121°28'0 0.0
2017-Oct-01 10:27N 31°07' E 121°28'0 0.0
2017-Sep-30 01:59N 31°07' E 121°28'1 1.2
2017-Sep-30 01:28N 31°06' E 121°27'0 0.0
2017-Sep-30 01:00N 31°06' E 121°27'0 0.0
2017-Sep-30 00:26N 31°06' E 121°27'0 0.0
2017-Sep-29 23:56N 31°06' E 121°27'0 0.0
2017-Sep-29 23:26N 31°06' E 121°27'0 0.0
2017-Sep-29 22:46N 31°06' E 121°27'0 0.0
2017-Sep-29 22:28N 31°06' E 121°27'0 0.0
2017-Sep-29 21:11N 31°06' E 121°27'0 0.0
2017-Sep-29 20:54N 31°06' E 121°27'0 0.0
2017-Sep-29 20:28N 31°06' E 121°27'0 0.0
2017-Sep-29 20:00N 31°06' E 121°27'0 0.0
2017-Sep-29 19:25N 31°06' E 121°27'0 0.0
2017-Sep-29 18:50N 31°06' E 121°27'0 0.0
2017-Sep-29 18:30N 31°06' E 121°27'0 0.0
2017-Sep-29 17:32N 31°06' E 121°27'0 0.0
2017-Sep-29 17:29N 31°06' E 121°27'0 0.0
2017-Sep-29 16:59N 31°06' E 121°27'0 0.0
2017-Sep-29 16:27N 31°06' E 121°27'0 0.0
2017-Sep-29 14:49N 31°06' E 121°27'0 0.0
2017-Sep-29 14:30N 31°06' E 121°27'0 0.0
2017-Sep-29 10:59N 31°06' E 121°27'0 0.0
2017-Sep-29 10:09N 31°06' E 121°27'0 0.0
2017-Sep-29 10:00N 31°06' E 121°27'0 0.0
2017-Sep-29 09:21N 31°06' E 121°27'0 0.0
2017-Sep-29 07:42N 31°06' E 121°27'0 0.0
2017-Sep-29 07:03N 31°06' E 121°27'0 0.0
2017-Sep-29 06:54N 31°06' E 121°27'0 0.0
2017-Sep-29 06:24N 31°06' E 121°27'0 0.0
2017-Sep-29 05:57N 31°06' E 121°27'0 0.0
2017-Sep-29 05:30N 31°06' E 121°27'0 0.0
2017-Sep-29 04:54N 31°06' E 121°27'0 0.0
2017-Sep-29 04:12N 31°06' E 121°27'0 0.0
2017-Sep-29 03:54N 31°06' E 121°27'0 0.0
2017-Sep-29 02:54N 31°06' E 121°27'0 0.0
2017-Sep-29 00:57N 31°06' E 121°27'0 0.0
2017-Sep-29 00:27N 31°06' E 121°27'0 0.0
2017-Sep-28 23:12N 31°06' E 121°27'0 0.0
2017-Sep-28 23:00N 31°06' E 121°27'  
Track history (hours):
 
Tides and Currents Weather Stations Pressure Air Temp Water Temp Dewpoint Dewpoint Depression Visibility Wind Speed Wind Dir Waves Ship Positions

BBC Delaware

Last reported at 2017-Oct-08 22:45 UTC. Time now 2017-Nov-21 01:08 UTC.
Position N 37°52' E 122°33'.
Warning: this ship's position is 43 days out of date.

Length 138 m; draft 6.3 m.

Type: Ship. MMSI: 305057000.

Date/timePositionNaut miles runAvg speedWind from/ knotsBaromVisibWave heightAir tempDewpointWater temp
2017-Oct-08 22:45N 37°52' E 122°33'415.0
2017-Oct-08 22:29N 37°48' E 122°36'2714.3
2017-Oct-08 20:35N 37°24' E 122°52'613.8
2017-Oct-08 20:11N 37°18' E 122°52'413.0
2017-Oct-08 19:51N 37°14' E 122°52'612.8
2017-Oct-08 19:23N 37°08' E 122°52'1012.6
2017-Oct-08 18:34N 36°58' E 122°52'112.5
2017-Oct-08 18:30N 36°57' E 122°52'612.6
2017-Oct-08 18:00N 36°51' E 122°52'33613.4
2017-Oct-07 16:58N 31°15' E 122°33'19 9.2
2017-Oct-07 14:53N 31°02' E 122°17'410.9
2017-Oct-07 14:30N 31°03' E 122°12'4 8.5
2017-Oct-07 14:00N 31°03' E 122°07'5 9.8
2017-Oct-07 13:31N 31°05' E 122°02'4 8.7
2017-Oct-07 13:00N 31°06' E 121°57'510.5
2017-Oct-07 12:30N 31°09' E 121°52'510.3
2017-Oct-07 12:00N 31°13' E 121°48'611.8
2017-Oct-07 11:30N 31°18' E 121°44'510.1
2017-Oct-07 11:00N 31°21' E 121°39'611.5
2017-Oct-07 10:30N 31°24' E 121°33'3 6.2
2017-Oct-07 10:00N 31°22' E 121°30'4 7.3
2017-Oct-07 09:31N 31°20' E 121°33'4 7.2
2017-Oct-07 09:00N 31°16' E 121°34'4 7.1
2017-Oct-07 08:30N 31°15' E 121°30'3 5.9
2017-Oct-07 08:01N 31°12' E 121°30'3 5.6
2017-Oct-07 07:29N 31°09' E 121°28'3 5.4
2017-Oct-07 06:59N 31°07' E 121°28'1 2.0
2017-Oct-07 06:29N 31°06' E 121°28'0 0.0
2017-Oct-07 06:00N 31°06' E 121°28'0 0.0
2017-Oct-07 05:18N 31°06' E 121°28'0 0.0
2017-Oct-07 05:00N 31°06' E 121°28'0 0.0
2017-Oct-07 04:26N 31°06' E 121°28'0 0.0
2017-Oct-07 03:41N 31°06' E 121°28'0 0.0
2017-Oct-07 03:30N 31°06' E 121°28'0 0.0
2017-Oct-07 02:31N 31°06' E 121°28'0 0.0
2017-Oct-07 02:30N 31°06' E 121°28'0 0.0
2017-Oct-07 02:01N 31°06' E 121°28'0 0.0
2017-Oct-07 01:25N 31°06' E 121°28'0 0.0
2017-Oct-07 00:58N 31°06' E 121°28'0 0.0
2017-Oct-07 00:25N 31°06' E 121°28'0 0.0
2017-Oct-06 23:55N 31°06' E 121°28'0 0.0
2017-Oct-06 23:30N 31°06' E 121°28'0 0.0
2017-Oct-06 23:00N 31°06' E 121°28'0 0.0
2017-Oct-06 22:29N 31°06' E 121°28'0 0.0
2017-Oct-06 21:56N 31°06' E 121°28'0 0.0
2017-Oct-06 21:29N 31°06' E 121°28'0 0.0
2017-Oct-06 20:57N 31°06' E 121°28'0 0.0
2017-Oct-06 20:23N 31°06' E 121°28'0 0.0
2017-Oct-06 20:00N 31°06' E 121°28'0 0.0
2017-Oct-06 19:20N 31°06' E 121°28'0 0.0
2017-Oct-06 19:00N 31°06' E 121°28'0 0.0
2017-Oct-06 18:28N 31°06' E 121°28'0 0.0
2017-Oct-06 17:58N 31°06' E 121°28'0 0.0
2017-Oct-06 17:16N 31°06' E 121°28'0 0.0
2017-Oct-06 16:49N 31°06' E 121°28'0 0.0
2017-Oct-06 16:13N 31°06' E 121°28'0 0.0
2017-Oct-06 15:41N 31°06' E 121°28'0 0.0
2017-Oct-06 15:31N 31°06' E 121°28'0 0.0
2017-Oct-06 14:57N 31°06' E 121°28'0 0.0
2017-Oct-06 14:28N 31°06' E 121°28'0 0.0
2017-Oct-06 13:56N 31°06' E 121°28'0 0.0
2017-Oct-06 13:28N 31°06' E 121°28'0 0.0
2017-Oct-06 12:47N 31°06' E 121°28'0 0.0
2017-Oct-06 11:47N 31°06' E 121°28'0 0.0
2017-Oct-06 11:30N 31°06' E 121°28'0 0.0
2017-Oct-06 10:57N 31°06' E 121°28'0 0.0
2017-Oct-06 10:26N 31°06' E 121°28'0 0.0
2017-Oct-06 09:57N 31°06' E 121°28'0 0.0
2017-Oct-06 09:27N 31°06' E 121°28'0 0.0
2017-Oct-06 08:59N 31°06' E 121°28'0 0.0
2017-Oct-06 08:30N 31°06' E 121°28'0 0.0
2017-Oct-06 07:59N 31°06' E 121°28'0 0.0
2017-Oct-06 07:23N 31°06' E 121°28'0 0.0
2017-Oct-06 07:00N 31°06' E 121°28'0 0.0
2017-Oct-06 06:30N 31°06' E 121°28'0 0.0
2017-Oct-06 05:59N 31°06' E 121°28'0 0.0
2017-Oct-06 05:10N 31°06' E 121°28'0 0.0
2017-Oct-06 04:55N 31°06' E 121°28'0 0.0
2017-Oct-06 04:30N 31°06' E 121°28'0 0.0
2017-Oct-06 03:59N 31°06' E 121°28'0 0.0
2017-Oct-06 03:30N 31°06' E 121°28'0 0.0
2017-Oct-06 02:59N 31°06' E 121°28'0 0.0
2017-Oct-06 02:24N 31°06' E 121°28'0 0.0
2017-Oct-06 01:59N 31°06' E 121°28'0 0.0
2017-Oct-06 01:15N 31°06' E 121°28'0 0.0
2017-Oct-06 01:00N 31°06' E 121°28'0 0.0
2017-Oct-06 00:19N 31°06' E 121°28'0 0.0
2017-Oct-05 23:59N 31°06' E 121°28'0 0.0
2017-Oct-05 23:27N 31°06' E 121°28'0 0.0
2017-Oct-05 22:56N 31°06' E 121°28'0 0.0
2017-Oct-05 22:26N 31°06' E 121°28'0 0.0
2017-Oct-05 21:58N 31°06' E 121°28'0 0.0
2017-Oct-05 21:30N 31°06' E 121°28'0 0.0
2017-Oct-05 21:00N 31°06' E 121°28'0 0.0
2017-Oct-05 20:30N 31°06' E 121°28'0 0.0
2017-Oct-05 20:00N 31°06' E 121°28'0 0.0
2017-Oct-05 19:30N 31°06' E 121°28'0 0.0
2017-Oct-05 18:59N 31°06' E 121°28'0 0.0
2017-Oct-05 18:27N 31°06' E 121°28'0 0.0
2017-Oct-05 18:00N 31°06' E 121°28'0 0.0
2017-Oct-05 17:28N 31°06' E 121°28'0 0.0
2017-Oct-05 16:59N 31°06' E 121°28'0 0.0
2017-Oct-05 15:29N 31°06' E 121°28'0 0.0
2017-Oct-05 14:57N 31°06' E 121°28'0 0.0
2017-Oct-05 14:30N 31°06' E 121°28'0 0.0
2017-Oct-05 13:59N 31°06' E 121°28'0 0.0
2017-Oct-05 13:30N 31°06' E 121°28'0 0.0
2017-Oct-05 12:50N 31°06' E 121°28'0 0.0
2017-Oct-05 12:31N 31°06' E 121°28'0 0.0
2017-Oct-05 11:57N 31°06' E 121°28'0 0.0
2017-Oct-05 11:28N 31°06' E 121°28'0 0.0
2017-Oct-05 10:57N 31°06' E 121°28'0 0.0
2017-Oct-05 10:22N 31°06' E 121°28'0 0.0
2017-Oct-05 10:00N 31°06' E 121°28'0 0.0
2017-Oct-05 09:30N 31°06' E 121°28'0 0.0
2017-Oct-05 08:57N 31°06' E 121°28'0 0.0
2017-Oct-05 08:15N 31°06' E 121°28'0 0.0
2017-Oct-05 07:46N 31°06' E 121°28'0 0.0
2017-Oct-05 07:29N 31°06' E 121°28'0 0.0
2017-Oct-05 06:59N 31°06' E 121°28'0 0.0
2017-Oct-05 06:25N 31°06' E 121°28'0 0.0
2017-Oct-05 05:56N 31°06' E 121°28'0 0.0
2017-Oct-05 05:09N 31°06' E 121°28'0 0.1
2017-Oct-05 04:55N 31°06' E 121°28'0 0.0
2017-Oct-05 04:30N 31°06' E 121°28'0 0.0
2017-Oct-05 04:00N 31°06' E 121°28'0 0.0
2017-Oct-05 01:16N 31°06' E 121°28'0 0.0
2017-Oct-05 00:53N 31°06' E 121°28'0 0.0
2017-Oct-05 00:27N 31°06' E 121°28'0 0.0
2017-Oct-04 23:57N 31°06' E 121°28'0 0.0
2017-Oct-04 23:30N 31°06' E 121°28'0 0.0
2017-Oct-04 22:52N 31°06' E 121°28'0 0.0
2017-Oct-04 22:25N 31°06' E 121°28'0 0.0
2017-Oct-04 22:00N 31°06' E 121°28'0 0.0
2017-Oct-04 21:29N 31°06' E 121°28'0 0.0
2017-Oct-04 20:58N 31°06' E 121°28'0 0.0
2017-Oct-04 20:24N 31°06' E 121°28'0 0.0
2017-Oct-04 19:53N 31°06' E 121°28'0 0.0
2017-Oct-04 19:30N 31°06' E 121°28'0 0.0
2017-Oct-04 18:52N 31°06' E 121°28'0 0.0
2017-Oct-04 18:27N 31°06' E 121°28'0 0.0
2017-Oct-04 17:56N 31°06' E 121°28'0 0.0
2017-Oct-04 17:23N 31°06' E 121°28'0 0.0
2017-Oct-04 16:50N 31°06' E 121°28'0 0.0
2017-Oct-04 16:31N 31°06' E 121°28'0 0.0
2017-Oct-04 16:01N 31°06' E 121°28'0 0.0
2017-Oct-04 15:28N 31°06' E 121°28'0 0.0
2017-Oct-04 14:58N 31°06' E 121°28'0 0.0
2017-Oct-04 14:25N 31°06' E 121°28'0 0.0
2017-Oct-04 13:58N 31°06' E 121°28'0 0.0
2017-Oct-04 13:28N 31°06' E 121°28'0 0.0
2017-Oct-04 12:58N 31°06' E 121°28'0 0.0
2017-Oct-04 12:21N 31°06' E 121°28'0 0.0
2017-Oct-04 11:58N 31°06' E 121°28'0 0.0
2017-Oct-04 11:17N 31°06' E 121°28'0 0.0
2017-Oct-04 10:52N 31°06' E 121°28'0 0.0
2017-Oct-04 10:28N 31°06' E 121°28'0 0.0
2017-Oct-04 09:52N 31°06' E 121°28'0 0.0
2017-Oct-04 09:30N 31°06' E 121°28'0 0.0
2017-Oct-04 08:54N 31°06' E 121°28'0 0.0
2017-Oct-04 08:30N 31°06' E 121°28'0 0.0
2017-Oct-04 07:53N 31°06' E 121°28'0 0.9
2017-Oct-04 07:30N 31°06' E 121°27'0 0.8
2017-Oct-04 06:58N 31°06' E 121°27'1 1.0
2017-Oct-04 06:23N 31°07' E 121°28'0 0.0
2017-Oct-04 06:00N 31°07' E 121°28'0 0.0
2017-Oct-04 05:27N 31°07' E 121°28'0 0.0
2017-Oct-04 04:57N 31°07' E 121°28'0 0.0
2017-Oct-04 04:30N 31°07' E 121°28'0 0.0
2017-Oct-04 03:45N 31°07' E 121°28'0 0.0
2017-Oct-04 03:30N 31°07' E 121°28'0 0.0
2017-Oct-04 02:51N 31°07' E 121°28'0 0.0
2017-Oct-04 00:09N 31°07' E 121°28'0 0.0
2017-Oct-03 23:51N 31°07' E 121°28'0 0.0
2017-Oct-03 23:15N 31°07' E 121°28'0 0.0
2017-Oct-03 22:51N 31°07' E 121°28'0 0.0
2017-Oct-03 22:21N 31°07' E 121°28'0 0.0
2017-Oct-03 19:33N 31°07' E 121°28'0 0.0
2017-Oct-03 19:15N 31°07' E 121°28'0 0.0
2017-Oct-03 18:57N 31°07' E 121°28'0 0.0
2017-Oct-03 18:21N 31°07' E 121°28'0 0.0
2017-Oct-03 17:57N 31°07' E 121°28'0 0.0
2017-Oct-03 17:30N 31°07' E 121°28'0 0.0
2017-Oct-03 16:42N 31°07' E 121°28'0 0.0
2017-Oct-03 16:30N 31°07' E 121°28'0 0.0
2017-Oct-03 15:54N 31°07' E 121°28'0 0.0
2017-Oct-03 15:21N 31°07' E 121°28'0 0.0
2017-Oct-03 14:51N 31°07' E 121°28'0 0.0
2017-Oct-03 12:15N 31°07' E 121°28'0 0.0
2017-Oct-03 11:57N 31°07' E 121°28'0 0.0
2017-Oct-03 11:27N 31°07' E 121°28'0 0.0
2017-Oct-03 09:27N 31°07' E 121°28'0 0.0
2017-Oct-03 05:21N 31°07' E 121°28'0 0.0
2017-Oct-03 04:57N 31°07' E 121°28'0 0.0
2017-Oct-03 04:27N 31°07' E 121°28'0 0.0
2017-Oct-03 04:00N 31°07' E 121°28'0 0.0
2017-Oct-03 03:27N 31°07' E 121°28'0 0.0
2017-Oct-03 01:48N 31°07' E 121°28'0 0.0
2017-Oct-03 01:09N 31°07' E 121°28'0 0.0
2017-Oct-03 00:54N 31°07' E 121°28'0 0.0
2017-Oct-02 22:57N 31°07' E 121°28'0 0.0
2017-Oct-02 22:24N 31°07' E 121°28'0 0.0
2017-Oct-02 18:09N 31°07' E 121°28'0 0.0
2017-Oct-02 16:57N 31°07' E 121°28'0 0.0
2017-Oct-02 16:27N 31°07' E 121°28'0 0.0
2017-Oct-02 15:54N 31°07' E 121°28'0 0.0
2017-Oct-02 15:27N 31°07' E 121°28'0 0.0
2017-Oct-02 14:57N 31°07' E 121°28'0 0.0
2017-Oct-02 14:27N 31°07' E 121°28'0 0.0
2017-Oct-02 12:39N 31°07' E 121°28'0 0.0
2017-Oct-02 11:27N 31°07' E 121°28'0 0.0
2017-Oct-02 10:51N 31°07' E 121°28'0 0.0
2017-Oct-02 10:21N 31°07' E 121°28'0 0.0
2017-Oct-02 09:48N 31°07' E 121°28'0 0.0
2017-Oct-02 09:27N 31°07' E 121°28'0 0.0
2017-Oct-02 08:45N 31°07' E 121°28'0 0.0
2017-Oct-01 10:27N 31°07' E 121°28'0 0.0
2017-Sep-30 01:59N 31°07' E 121°28'1 1.2
2017-Sep-30 01:28N 31°06' E 121°27'0 0.0
2017-Sep-30 01:00N 31°06' E 121°27'0 0.0
2017-Sep-30 00:26N 31°06' E 121°27'0 0.0
2017-Sep-29 23:56N 31°06' E 121°27'0 0.0
2017-Sep-29 23:26N 31°06' E 121°27'0 0.0
2017-Sep-29 22:46N 31°06' E 121°27'0 0.0
2017-Sep-29 22:28N 31°06' E 121°27'0 0.0
2017-Sep-29 21:11N 31°06' E 121°27'0 0.0
2017-Sep-29 20:54N 31°06' E 121°27'0 0.0
2017-Sep-29 20:28N 31°06' E 121°27'0 0.0
2017-Sep-29 20:00N 31°06' E 121°27'0 0.0
2017-Sep-29 19:25N 31°06' E 121°27'0 0.0
2017-Sep-29 18:50N 31°06' E 121°27'0 0.0
2017-Sep-29 18:30N 31°06' E 121°27'0 0.0
2017-Sep-29 17:32N 31°06' E 121°27'0 0.0
2017-Sep-29 17:29N 31°06' E 121°27'0 0.0
2017-Sep-29 16:59N 31°06' E 121°27'0 0.0
2017-Sep-29 16:27N 31°06' E 121°27'0 0.0
2017-Sep-29 14:49N 31°06' E 121°27'0 0.0
2017-Sep-29 14:30N 31°06' E 121°27'0 0.0
2017-Sep-29 10:59N 31°06' E 121°27'0 0.0
2017-Sep-29 10:09N 31°06' E 121°27'0 0.0
2017-Sep-29 10:00N 31°06' E 121°27'0 0.0
2017-Sep-29 09:21N 31°06' E 121°27'0 0.0
2017-Sep-29 07:42N 31°06' E 121°27'0 0.0
2017-Sep-29 07:03N 31°06' E 121°27'0 0.0
2017-Sep-29 06:54N 31°06' E 121°27'0 0.0
2017-Sep-29 06:24N 31°06' E 121°27'0 0.0
2017-Sep-29 05:57N 31°06' E 121°27'0 0.0
2017-Sep-29 05:30N 31°06' E 121°27'0 0.0
2017-Sep-29 04:54N 31°06' E 121°27'0 0.0
2017-Sep-29 04:12N 31°06' E 121°27'0 0.0
2017-Sep-29 03:54N 31°06' E 121°27'0 0.0
2017-Sep-29 02:54N 31°06' E 121°27'0 0.0
2017-Sep-29 00:57N 31°06' E 121°27'0 0.0
2017-Sep-29 00:27N 31°06' E 121°27'0 0.0
2017-Sep-28 23:12N 31°06' E 121°27'0 0.0
2017-Sep-28 23:00N 31°06' E 121°27'  

Dump ship's entire track history